Time;durP1;ratioP1;P1;durP2;ratioP2;P2;SDS_P1;SDS_P2;PMS_P1;PMS_P2;Temp;Humidity;BMP_temperature;BMP_pressure;BME280_temperature;BME280_humidity;BME280_pressure;Samples;Min_cycle;Max_cycle;Signal;HPM_P1;HPM_P2
2023/12/12 00:02:02;;;;;;;;;;;;;;;;;;4975761;28;20131;-74
2023/12/12 00:04:28;;;;;;;19.10;10.15;;;;;;;;;;4980285;28;20460;-73
2023/12/12 00:06:54;;;;;;;;;;;;;;;;;;4980348;28;20066;-72
2023/12/12 00:09:20;;;;;;;17.15;9.65;;;;;;;;;;4981344;28;19960;-74
2023/12/12 00:11:47;;;;;;;15.68;7.95;;;;;;;;;;4977759;28;20568;-72
2023/12/12 00:14:13;;;;;;;;;;;;;;;;;;4976456;28;20037;-74
2023/12/12 00:16:39;;;;;;;29.63;9.95;;;;;;;;;;4975884;28;19918;-74
2023/12/12 00:19:05;;;;;;;;;;;;;;;;;;4976893;28;20129;-72
2023/12/12 00:21:31;;;;;;;20.55;9.23;;;;;;;;;;4977070;28;19918;-71
2023/12/12 00:23:57;;;;;;;20.75;9.57;;;;;;;;;;4979305;28;20061;-72
2023/12/12 00:26:23;;;;;;;15.35;9.07;;;;;;;;;;4978175;28;20743;-71
2023/12/12 00:28:50;;;;;;;;;;;;;;;;;;4983903;28;20524;-73
2023/12/12 00:31:16;;;;;;;14.27;8.88;;;;;;;;;;4976762;28;20001;-70
2023/12/12 00:33:42;;;;;;;14.38;9.43;;;;;;;;;;4980157;28;20029;-71
2023/12/12 00:36:08;;;;;;;14.02;10.25;;;;;;;;;;4977353;28;20037;-71
2023/12/12 00:38:35;;;;;;;;;;;;;;;;;;4984030;28;20073;-70
2023/12/12 00:41:01;;;;;;;23.20;18.25;;;;;;;;;;4977938;28;19955;-71
2023/12/12 00:43:27;;;;;;;16.50;11.77;;;;;;;;;;4985029;28;20379;-71
2023/12/12 00:45:54;;;;;;;13.65;9.07;;;;;;;;;;4986827;28;20564;-72
2023/12/12 00:48:20;;;;;;;12.25;8.43;;;;;;;;;;4984933;28;20091;-70
2023/12/12 00:50:46;;;;;;;11.98;7.72;;;;;;;;;;4987753;28;20091;-71
2023/12/12 00:53:12;;;;;;;;;;;;;;;;;;4985520;28;20148;-71
2023/12/12 00:55:38;;;;;;;12.10;7.57;;;;;;;;;;4983287;28;19924;-71
2023/12/12 00:58:05;;;;;;;17.80;7.90;;;;;;;;;;4980704;28;20030;-71
2023/12/12 01:00:31;;;;;;;17.02;9.57;;;;;;;;;;4992028;28;20140;-76
2023/12/12 01:02:57;;;;;;;;;;;;;;;;;;5002408;28;20124;-70
2023/12/12 01:05:23;;;;;;;22.88;8.73;;;;;;;;;;4981829;28;20008;-70
2023/12/12 01:07:49;;;;;;;30.02;8.68;;;;;;;;;;4987091;28;20033;-69
2023/12/12 01:10:15;;;;;;;31.50;8.15;;;;;;;;;;4982411;28;20034;-69
2023/12/12 01:12:41;;;;;;;34.47;9.07;;;;;;;;;;4985097;28;20025;-69
2023/12/12 01:15:08;;;;;;;22.73;8.25;;;;;;;;;;4984788;28;20062;-69
2023/12/12 01:17:34;;;;;;;21.27;8.75;;;;;;;;;;4982957;28;20030;-70
2023/12/12 01:20:00;;;;;;;15.40;9.80;;;;;;;;;;4979070;28;20034;-70
2023/12/12 01:22:26;;;;;;;18.30;8.63;;;;;;;;;;4982394;28;20148;-71
2023/12/12 01:24:52;;;;;;;26.55;8.43;;;;;;;;;;4981950;28;20030;-70
2023/12/12 01:27:18;;;;;;;18.95;9.15;;;;;;;;;;4958373;28;20064;-70
2023/12/12 01:29:45;;;;;;;23.55;9.18;;;;;;;;;;4978454;28;20030;-70
2023/12/12 01:32:11;;;;;;;;;;;;;;;;;;4985488;28;20113;-70
2023/12/12 01:34:37;;;;;;;26.42;8.63;;;;;;;;;;4991868;28;19909;-70
2023/12/12 01:37:03;;;;;;;22.58;7.95;;;;;;;;;;4986382;28;20033;-71
2023/12/12 01:39:29;;;;;;;;;;;;;;;;;;4985477;28;20088;-70
2023/12/12 01:41:55;;;;;;;23.40;8.05;;;;;;;;;;4988466;28;19909;-72
2023/12/12 01:44:21;;;;;;;28.90;8.10;;;;;;;;;;4990394;28;20032;-73
2023/12/12 01:46:47;;;;;;;;;;;;;;;;;;4988765;28;20030;-69
2023/12/12 01:49:14;;;;;;;26.35;8.35;;;;;;;;;;4985935;28;20386;-72
2023/12/12 01:51:40;;;;;;;39.05;9.10;;;;;;;;;;4985679;28;20038;-72
2023/12/12 01:54:07;;;;;;;35.47;8.82;;;;;;;;;;4985612;28;20036;-71
2023/12/12 01:56:34;;;;;;;29.98;8.68;;;;;;;;;;4988574;28;20050;-72
2023/12/12 01:59:01;;;;;;;35.13;8.45;;;;;;;;;;4985790;28;20026;-73
2023/12/12 02:01:27;;;;;;;30.63;8.98;;;;;;;;;;4987479;28;20038;-74
2023/12/12 02:03:53;;;;;;;22.90;8.25;;;;;;;;;;4948895;28;22035;-73
2023/12/12 02:06:23;;;;;;;;;;;;;;;;;;4940434;28;20726;-72
2023/12/12 02:08:55;;;;;;;23.27;9.18;;;;;;;;;;4940411;28;20393;-70
2023/12/12 02:11:23;;;;;;;25.52;9.35;;;;;;;;;;4941610;28;20453;-72
2023/12/12 02:13:50;;;;;;;28.90;8.73;;;;;;;;;;4942475;28;20496;-74
2023/12/12 02:16:17;;;;;;;32.10;9.73;;;;;;;;;;4941124;28;20022;-72
2023/12/12 02:18:43;;;;;;;40.17;10.38;;;;;;;;;;4947686;28;20084;-72
2023/12/12 02:21:10;;;;;;;33.15;10.00;;;;;;;;;;4942176;28;20037;-73
2023/12/12 02:23:36;;;;;;;33.35;9.75;;;;;;;;;;4944149;28;20893;-73
2023/12/12 02:26:03;;;;;;;37.30;9.55;;;;;;;;;;4942237;28;20030;-72
2023/12/12 02:28:29;;;;;;;31.48;9.23;;;;;;;;;;4942384;28;20377;-73
2023/12/12 02:30:56;;;;;;;45.22;7.97;;;;;;;;;;4941168;28;20031;-72
2023/12/12 02:33:22;;;;;;;25.48;8.80;;;;;;;;;;4945259;28;20547;-72
2023/12/12 02:35:48;;;;;;;34.65;8.40;;;;;;;;;;4943739;28;20142;-72
2023/12/12 02:38:14;;;;;;;20.63;8.07;;;;;;;;;;4942295;28;20367;-72
2023/12/12 02:40:41;;;;;;;30.52;8.65;;;;;;;;;;4970393;28;20034;-72
2023/12/12 02:43:07;;;;;;;;;;;;;;;;;;4987329;28;20062;-72
2023/12/12 02:45:33;;;;;;;38.38;9.60;;;;;;;;;;4989279;28;20043;-72
2023/12/12 02:47:59;;;;;;;25.23;8.90;;;;;;;;;;4987289;28;20053;-72
2023/12/12 02:50:25;;;;;;;;;;;;;;;;;;4990345;28;20091;-72
2023/12/12 02:52:51;;;;;;;23.35;8.77;;;;;;;;;;4987926;28;20454;-72
2023/12/12 02:55:17;;;;;;;;;;;;;;;;;;4985888;28;20033;-72
2023/12/12 02:57:43;;;;;;;18.13;9.07;;;;;;;;;;4986372;28;20280;-72
2023/12/12 03:00:09;;;;;;;16.92;8.82;;;;;;;;;;4983124;28;20030;-72
2023/12/12 03:02:36;;;;;;;17.23;8.32;;;;;;;;;;4986261;28;20045;-72
2023/12/12 03:05:03;;;;;;;18.48;8.13;;;;;;;;;;4982997;28;20033;-71
2023/12/12 03:07:29;;;;;;;22.38;8.25;;;;;;;;;;4982665;28;20112;-72
2023/12/12 03:09:56;;;;;;;21.42;8.45;;;;;;;;;;4986284;28;20045;-71
2023/12/12 03:12:22;;;;;;;16.63;8.60;;;;;;;;;;4982151;28;20056;-72
2023/12/12 03:14:48;;;;;;;12.38;7.68;;;;;;;;;;4990928;28;20100;-72
2023/12/12 03:17:14;;;;;;;15.82;8.07;;;;;;;;;;4980490;28;20117;-71
2023/12/12 03:19:40;;;;;;;14.07;8.38;;;;;;;;;;4985765;28;20021;-72
2023/12/12 03:22:06;;;;;;;17.02;8.50;;;;;;;;;;4982428;28;20035;-72
2023/12/12 03:24:32;;;;;;;14.15;7.80;;;;;;;;;;4984244;28;20499;-72
2023/12/12 03:26:58;;;;;;;;;;;;;;;;;;4984971;28;20774;-72
2023/12/12 03:29:25;;;;;;;12.70;7.85;;;;;;;;;;4985983;28;19913;-72
2023/12/12 03:31:50;;;;;;;;;;;;;;;;;;4985748;28;20053;-72
2023/12/12 03:34:17;;;;;;;15.48;7.75;;;;;;;;;;4980601;28;19917;-72
2023/12/12 03:36:43;;;;;;;;;;;;;;;;;;4987727;28;20100;-72
2023/12/12 03:39:10;;;;;;;11.63;5.93;;;;;;;;;;4980919;28;19914;-72
2023/12/12 03:41:36;;;;;;;10.88;5.80;;;;;;;;;;4984654;28;20038;-73
2023/12/12 03:44:02;;;;;;;12.13;5.85;;;;;;;;;;4985841;28;20042;-71
2023/12/12 03:46:28;;;;;;;;;;;;;;;;;;4987910;28;20674;-73
2023/12/12 03:48:54;;;;;;;11.50;5.80;;;;;;;;;;4983385;28;20384;-72
2023/12/12 03:51:21;;;;;;;11.50;5.85;;;;;;;;;;4984239;28;20191;-72
2023/12/12 03:53:47;;;;;;;11.40;6.22;;;;;;;;;;4984984;28;20108;-72
2023/12/12 03:56:13;;;;;;;12.75;7.10;;;;;;;;;;4987226;28;20146;-74
2023/12/12 03:58:39;;;;;;;15.95;9.00;;;;;;;;;;4985389;28;20038;-72
2023/12/12 04:01:06;;;;;;;19.25;9.10;;;;;;;;;;4983066;28;20507;-74
2023/12/12 04:03:32;;;;;;;19.50;9.02;;;;;;;;;;4987277;28;20116;-74
2023/12/12 04:06:01;;;;;;;18.25;8.25;;;;;;;;;;4984714;28;20464;-74
2023/12/12 04:08:27;;;;;;;20.95;8.13;;;;;;;;;;4984254;28;20030;-72
2023/12/12 04:10:53;;;;;;;14.57;7.43;;;;;;;;;;4985268;28;20442;-73
2023/12/12 04:13:19;;;;;;;21.30;7.90;;;;;;;;;;4982848;28;20910;-75
2023/12/12 04:15:45;;;;;;;12.75;7.25;;;;;;;;;;4985103;28;20069;-74
2023/12/12 04:18:12;;;;;;;20.45;8.18;;;;;;;;;;4984492;28;20038;-75
2023/12/12 04:20:38;;;;;;;;;;;;;;;;;;4983982;28;20045;-73
2023/12/12 04:23:04;;;;;;;18.42;8.15;;;;;;;;;;4981856;28;19917;-74
2023/12/12 04:25:30;;;;;;;16.92;7.88;;;;;;;;;;4982900;28;20037;-74
2023/12/12 04:27:56;;;;;;;14.60;8.02;;;;;;;;;;4981590;28;20047;-74
2023/12/12 04:30:22;;;;;;;;;;;;;;;;;;4984084;28;20223;-73
2023/12/12 04:32:48;;;;;;;13.90;8.98;;;;;;;;;;4983571;28;19963;-73
2023/12/12 04:35:16;;;;;;;14.23;8.60;;;;;;;;;;4982592;28;20073;-72
2023/12/12 04:37:42;;;;;;;15.73;8.98;;;;;;;;;;4988308;28;20732;-73
2023/12/12 04:40:08;;;;;;;16.83;9.18;;;;;;;;;;4980443;28;20136;-74
2023/12/12 04:42:36;;;;;;;;;;;;;;;;;;4983556;28;20037;-72
2023/12/12 04:45:02;;;;;;;;;;;;;;;;;;5012455;28;19983;-72
2023/12/12 04:47:28;;;;;;;14.93;9.23;;;;;;;;;;4985268;28;19913;-73
2023/12/12 04:49:55;;;;;;;16.13;9.60;;;;;;;;;;4983398;28;20045;-72
2023/12/12 04:52:21;;;;;;;19.50;10.43;;;;;;;;;;4981086;28;20025;-73
2023/12/12 04:54:47;;;;;;;13.50;8.48;;;;;;;;;;4985370;28;20041;-72
2023/12/12 04:57:14;;;;;;;15.45;9.40;;;;;;;;;;4981004;28;20050;-72
2023/12/12 04:59:40;;;;;;;15.68;9.68;;;;;;;;;;4982690;28;20031;-73
2023/12/12 05:02:06;;;;;;;15.13;9.20;;;;;;;;;;4982971;28;20030;-73
2023/12/12 05:04:32;;;;;;;16.63;10.68;;;;;;;;;;4982924;28;20057;-75
2023/12/12 05:06:58;;;;;;;17.83;10.20;;;;;;;;;;4982882;28;20148;-73
2023/12/12 05:09:24;;;;;;;;;;;;;;;;;;4983138;28;20088;-73
2023/12/12 05:11:50;;;;;;;16.00;9.70;;;;;;;;;;4986347;28;19917;-72
2023/12/12 05:14:16;;;;;;;;;;;;;;;;;;4985078;28;20030;-72
2023/12/12 05:16:42;;;;;;;15.45;9.85;;;;;;;;;;4986949;28;19924;-73
2023/12/12 05:19:08;;;;;;;;;;;;;;;;;;4984088;28;20832;-73
2023/12/12 05:21:35;;;;;;;19.55;12.05;;;;;;;;;;4985376;28;19917;-75
2023/12/12 05:24:01;;;;;;;;;;;;;;;;;;4981648;28;20113;-72
2023/12/12 05:26:27;;;;;;;16.27;10.43;;;;;;;;;;4986516;28;19956;-72
2023/12/12 05:28:53;;;;;;;;;;;;;;;;;;4991447;28;20029;-73
2023/12/12 05:31:19;;;;;;;18.48;10.32;;;;;;;;;;4986554;28;20592;-72
2023/12/12 05:33:46;;;;;;;18.30;10.77;;;;;;;;;;4990266;28;20041;-73
2023/12/12 05:36:12;;;;;;;17.48;10.30;;;;;;;;;;4985007;28;20030;-73
2023/12/12 05:38:39;;;;;;;18.52;10.20;;;;;;;;;;4987566;28;20037;-74
2023/12/12 05:41:05;;;;;;;17.58;9.75;;;;;;;;;;4987301;28;20042;-74
2023/12/12 05:43:31;;;;;;;17.98;10.75;;;;;;;;;;4987861;28;20052;-74
2023/12/12 05:45:57;;;;;;;18.77;11.32;;;;;;;;;;4983513;28;20044;-74
2023/12/12 05:48:23;;;;;;;;;;;;;;;;;;4987151;28;20022;-74
2023/12/12 05:50:49;;;;;;;19.02;11.18;;;;;;;;;;4985895;28;19992;-74
2023/12/12 05:53:15;;;;;;;19.02;10.88;;;;;;;;;;4985050;28;20040;-74
2023/12/12 05:55:41;;;;;;;21.05;11.25;;;;;;;;;;4987855;28;20038;-71
2023/12/12 05:58:07;;;;;;;19.40;11.80;;;;;;;;;;4984243;28;20036;-73
2023/12/12 06:00:34;;;;;;;18.73;11.93;;;;;;;;;;4984941;28;20029;-72
2023/12/12 06:03:01;;;;;;;19.85;10.98;;;;;;;;;;4985586;28;20034;-73
2023/12/12 06:05:28;;;;;;;16.42;10.40;;;;;;;;;;4985534;28;20440;-72
2023/12/12 06:07:54;;;;;;;21.73;11.82;;;;;;;;;;4987253;28;20041;-72
2023/12/12 06:10:20;;;;;;;18.00;11.75;;;;;;;;;;4986926;28;20030;-72
2023/12/12 06:12:46;;;;;;;19.30;12.48;;;;;;;;;;4987583;28;20032;-72
2023/12/12 06:15:12;;;;;;;20.58;12.98;;;;;;;;;;4983249;28;20108;-72
2023/12/12 06:17:38;;;;;;;;;;;;;;;;;;4991592;28;20037;-74
2023/12/12 06:20:05;;;;;;;20.35;12.02;;;;;;;;;;4982947;28;19925;-75
2023/12/12 06:22:31;;;;;;;18.83;11.98;;;;;;;;;;4988212;28;20103;-76
2023/12/12 06:24:57;;;;;;;19.10;12.25;;;;;;;;;;4987354;28;20685;-74
2023/12/12 06:27:23;;;;;;;20.38;12.38;;;;;;;;;;4988647;28;20025;-75
2023/12/12 06:29:50;;;;;;;22.60;12.07;;;;;;;;;;4981600;28;20033;-74
2023/12/12 06:32:16;;;;;;;20.98;12.02;;;;;;;;;;4985830;28;20096;-74
2023/12/12 06:34:43;;;;;;;21.77;12.57;;;;;;;;;;4989843;28;20023;-72
2023/12/12 06:37:10;;;;;;;22.75;13.80;;;;;;;;;;4987261;28;20058;-73
2023/12/12 06:39:36;;;;;;;24.75;15.55;;;;;;;;;;4988374;28;20105;-73
2023/12/12 06:42:02;;;;;;;;;;;;;;;;;;4989770;28;20925;-73
2023/12/12 06:44:28;;;;;;;24.75;16.20;;;;;;;;;;4987296;28;20412;-74
2023/12/12 06:46:55;;;;;;;26.77;17.38;;;;;;;;;;4987422;28;20037;-73
2023/12/12 06:49:21;;;;;;;30.08;18.52;;;;;;;;;;4984213;28;20033;-74
2023/12/12 06:51:47;;;;;;;;;;;;;;;;;;4985966;28;20037;-74
2023/12/12 06:54:13;;;;;;;24.15;17.63;;;;;;;;;;4983310;28;19914;-74
2023/12/12 06:56:40;;;;;;;27.02;17.30;;;;;;;;;;4985314;28;20567;-75
2023/12/12 06:59:06;;;;;;;25.70;17.30;;;;;;;;;;4983772;28;20040;-73
2023/12/12 07:01:32;;;;;;;30.23;18.95;;;;;;;;;;4986686;28;20125;-74
2023/12/12 07:03:58;;;;;;;27.23;16.80;;;;;;;;;;4985273;28;20789;-74
2023/12/12 07:06:24;;;;;;;23.73;16.67;;;;;;;;;;4982350;28;20033;-73
2023/12/12 07:08:51;;;;;;;25.45;15.98;;;;;;;;;;4986445;28;20034;-73
2023/12/12 07:11:18;;;;;;;24.60;15.13;;;;;;;;;;4981187;28;20042;-73
2023/12/12 07:13:44;;;;;;;24.77;17.42;;;;;;;;;;4987112;28;20115;-73
2023/12/12 07:16:10;;;;;;;26.48;16.63;;;;;;;;;;4983345;28;20034;-73
2023/12/12 07:18:39;;;;;;;26.10;17.55;;;;;;;;;;4986613;28;20708;-73
2023/12/12 07:21:06;;;;;;;25.05;16.23;;;;;;;;;;4980236;28;20641;-73
2023/12/12 07:23:33;;;;;;;25.25;16.73;;;;;;;;;;4983062;28;20083;-74
2023/12/12 07:25:59;;;;;;;28.05;16.65;;;;;;;;;;4981669;28;20034;-74
2023/12/12 07:28:25;;;;;;;;;;;;;;;;;;4986010;28;20037;-72
2023/12/12 07:30:53;;;;;;;25.88;15.75;;;;;;;;;;4982109;28;19914;-75
2023/12/12 07:33:19;;;;;;;27.33;15.27;;;;;;;;;;4978432;28;20104;-72
2023/12/12 07:35:46;;;;;;;21.05;13.32;;;;;;;;;;4988727;28;20105;-72
2023/12/12 07:38:12;;;;;;;23.58;14.48;;;;;;;;;;4984573;28;20084;-74
2023/12/12 07:40:38;;;;;;;24.50;14.43;;;;;;;;;;4985835;28;20174;-73
2023/12/12 07:43:04;;;;;;;;;;;;;;;;;;4980691;28;20037;-73
2023/12/12 07:45:30;;;;;;;25.20;12.55;;;;;;;;;;4986102;28;19913;-73
2023/12/12 07:47:56;;;;;;;24.60;11.82;;;;;;;;;;4985737;28;20033;-73
2023/12/12 07:50:23;;;;;;;21.55;10.80;;;;;;;;;;4979993;28;20053;-72
2023/12/12 07:52:49;;;;;;;;;;;;;;;;;;4983918;28;20598;-72
2023/12/12 07:55:15;;;;;;;19.23;9.65;;;;;;;;;;4983026;28;19913;-72
2023/12/12 07:57:41;;;;;;;;;;;;;;;;;;4979900;28;20069;-73
2023/12/12 08:00:09;;;;;;;17.33;8.93;;;;;;;;;;4981740;28;20012;-74
2023/12/12 08:02:36;;;;;;;19.05;8.45;;;;;;;;;;4981852;28;20484;-73
2023/12/12 08:05:03;;;;;;;;;;;;;;;;;;4980687;28;20107;-73
2023/12/12 08:07:29;;;;;;;21.95;8.00;;;;;;;;;;4983352;28;19913;-74
2023/12/12 08:09:55;;;;;;;;;;;;;;;;;;4987654;28;20040;-72
2023/12/12 08:12:23;;;;;;;16.85;7.50;;;;;;;;;;4979345;28;19917;-75
2023/12/12 08:14:50;;;;;;;17.30;8.10;;;;;;;;;;4984793;28;20030;-73
2023/12/12 08:17:16;;;;;;;18.23;7.60;;;;;;;;;;4984922;28;20485;-75
2023/12/12 08:19:42;;;;;;;15.20;7.00;;;;;;;;;;4985451;28;20034;-75
2023/12/12 08:22:08;;;;;;;18.73;7.90;;;;;;;;;;4979103;28;20177;-73
2023/12/12 08:24:34;;;;;;;17.73;7.20;;;;;;;;;;4984853;28;20042;-74
2023/12/12 08:27:01;;;;;;;21.38;7.32;;;;;;;;;;4977634;28;20031;-74
2023/12/12 08:29:27;;;;;;;18.33;6.57;;;;;;;;;;4986611;28;20456;-73
2023/12/12 08:31:53;;;;;;;16.42;5.82;;;;;;;;;;4984143;28;20025;-73
2023/12/12 08:34:19;;;;;;;18.63;5.75;;;;;;;;;;4980932;28;20120;-74
2023/12/12 08:36:45;;;;;;;19.33;8.77;;;;;;;;;;4981435;28;20119;-70
2023/12/12 08:39:13;;;;;;;19.70;10.95;;;;;;;;;;4982643;28;20038;-70
2023/12/12 08:41:39;;;;;;;17.90;9.45;;;;;;;;;;4983993;28;20033;-71
2023/12/12 08:44:06;;;;;;;16.52;8.55;;;;;;;;;;4984650;28;20061;-70
2023/12/12 08:46:32;;;;;;;17.08;9.38;;;;;;;;;;4981878;28;20061;-70
2023/12/12 08:48:58;;;;;;;14.57;7.40;;;;;;;;;;4982584;28;20457;-70
2023/12/12 08:51:25;;;;;;;15.93;7.13;;;;;;;;;;4983652;28;20026;-69
2023/12/12 08:53:51;;;;;;;14.60;6.55;;;;;;;;;;4981186;28;20112;-72
2023/12/12 08:56:17;;;;;;;18.60;6.70;;;;;;;;;;4981648;28;20050;-69
2023/12/12 08:58:44;;;;;;;14.88;5.93;;;;;;;;;;4985134;28;20033;-70
2023/12/12 09:01:10;;;;;;;15.45;5.85;;;;;;;;;;4981886;28;20033;-71
2023/12/12 09:03:37;;;;;;;14.35;5.07;;;;;;;;;;4987690;28;20051;-70
2023/12/12 09:06:03;;;;;;;17.77;6.43;;;;;;;;;;4982705;28;20018;-70
2023/12/12 09:08:30;;;;;;;15.25;5.60;;;;;;;;;;4988235;28;20034;-70
2023/12/12 09:10:56;;;;;;;13.95;5.18;;;;;;;;;;4985236;28;20025;-70
2023/12/12 09:13:22;;;;;;;14.43;4.63;;;;;;;;;;4985814;28;20048;-70
2023/12/12 09:15:48;;;;;;;12.55;4.97;;;;;;;;;;4990359;28;20029;-69
2023/12/12 09:18:15;;;;;;;14.30;5.28;;;;;;;;;;4985215;28;20029;-69
2023/12/12 09:20:41;;;;;;;10.82;4.28;;;;;;;;;;4987900;28;20038;-70
2023/12/12 09:23:07;;;;;;;10.50;4.22;;;;;;;;;;4985750;28;20079;-69
2023/12/12 09:25:33;;;;;;;11.82;4.32;;;;;;;;;;4985638;28;20734;-69
2023/12/12 09:27:59;;;;;;;10.35;4.00;;;;;;;;;;4986791;28;20022;-69
2023/12/12 09:30:26;;;;;;;12.43;3.63;;;;;;;;;;4985358;28;20034;-69
2023/12/12 09:32:52;;;;;;;13.98;3.80;;;;;;;;;;4989573;28;20060;-72
2023/12/12 09:35:18;;;;;;;12.73;3.92;;;;;;;;;;4982795;28;20065;-70
2023/12/12 09:37:44;;;;;;;10.27;3.80;;;;;;;;;;4988792;28;20033;-70
2023/12/12 09:40:11;;;;;;;12.32;3.55;;;;;;;;;;4983172;28;21297;-71
2023/12/12 09:42:37;;;;;;;11.20;3.60;;;;;;;;;;4988497;28;20034;-71
2023/12/12 09:45:04;;;;;;;13.32;4.40;;;;;;;;;;4984006;28;20030;-71
2023/12/12 09:47:33;;;;;;;12.63;4.07;;;;;;;;;;4989732;28;20460;-72
2023/12/12 09:50:00;;;;;;;11.98;4.18;;;;;;;;;;4987238;28;20026;-70
2023/12/12 09:52:29;;;;;;;12.40;4.10;;;;;;;;;;4988048;28;20791;-71
2023/12/12 09:54:57;;;;;;;10.82;3.83;;;;;;;;;;4987832;28;20022;-70
2023/12/12 09:57:24;;;;;;;13.00;3.90;;;;;;;;;;4986573;28;20084;-71
2023/12/12 09:59:50;;;;;;;9.88;2.80;;;;;;;;;;4985704;28;20113;-74
2023/12/12 10:02:23;;;;;;;9.73;3.03;;;;;;;;;;4981364;28;20128;-74
2023/12/12 10:04:52;;;;;;;11.82;3.08;;;;;;;;;;4984239;28;20034;-74
2023/12/12 10:07:18;;;;;;;13.15;3.15;;;;;;;;;;4982467;28;20046;-72
2023/12/12 10:09:46;;;;;;;10.82;3.35;;;;;;;;;;4987389;28;20372;-73
2023/12/12 10:12:12;;;;;;;15.02;3.60;;;;;;;;;;4982359;28;20034;-73
2023/12/12 10:14:47;;;;;;;10.15;3.30;;;;;;;;;;4983966;28;20115;-74
2023/12/12 10:17:13;;;;;;;9.70;2.80;;;;;;;;;;4982172;28;20038;-73
2023/12/12 10:19:39;;;;;;;9.40;2.72;;;;;;;;;;4985332;28;20045;-73
2023/12/12 10:22:06;;;;;;;11.63;3.13;;;;;;;;;;4983564;28;20042;-73
2023/12/12 10:24:33;;;;;;;11.25;3.03;;;;;;;;;;4986766;28;20048;-73
2023/12/12 10:26:59;;;;;;;11.32;2.50;;;;;;;;;;4982056;28;20023;-73
2023/12/12 10:29:26;;;;;;;13.15;2.92;;;;;;;;;;4987855;28;20026;-74
2023/12/12 10:31:53;;;;;;;10.05;2.70;;;;;;;;;;4985871;28;20121;-73
2023/12/12 10:34:23;;;;;;;9.82;2.85;;;;;;;;;;4981975;28;20179;-73
2023/12/12 10:36:49;;;;;;;10.13;3.10;;;;;;;;;;4985531;28;20040;-73
2023/12/12 10:39:16;;;;;;;9.77;2.78;;;;;;;;;;4984830;28;20045;-73
2023/12/12 10:41:55;;;;;;;11.55;3.05;;;;;;;;;;4985593;28;20536;-73
2023/12/12 10:44:22;;;;;;;8.77;2.65;;;;;;;;;;4983313;28;20684;-73
2023/12/12 10:46:52;;;;;;;11.35;2.95;;;;;;;;;;4984165;28;20041;-71
2023/12/12 10:49:23;;;;;;;10.65;2.70;;;;;;;;;;4981960;28;20848;-73
2023/12/12 10:51:50;;;;;;;11.32;3.05;;;;;;;;;;4985215;28;20069;-74
2023/12/12 10:54:20;;;;;;;12.15;2.90;;;;;;;;;;4982540;28;20525;-74
2023/12/12 10:56:47;;;;;;;10.52;2.95;;;;;;;;;;4983583;28;20051;-73
2023/12/12 10:59:17;;;;;;;10.30;3.33;;;;;;;;;;4980768;28;20077;-73
2023/12/12 11:01:47;;;;;;;10.88;3.38;;;;;;;;;;4982673;28;20343;-73
2023/12/12 11:04:14;;;;;;;11.10;3.38;;;;;;;;;;4984699;28;20555;-73
2023/12/12 11:06:43;;;;;;;9.32;2.92;;;;;;;;;;4988078;28;20033;-73
2023/12/12 11:09:09;;;;;;;13.90;5.15;;;;;;;;;;4985891;28;20108;-73
2023/12/12 11:11:37;;;;;;;12.48;5.60;;;;;;;;;;4987924;28;20034;-72
2023/12/12 11:14:03;;;;;;;13.02;4.70;;;;;;;;;;4983205;28;20034;-72
2023/12/12 11:16:30;;;;;;;11.02;4.07;;;;;;;;;;4984335;28;20029;-73
2023/12/12 11:18:57;;;;;;;9.65;3.72;;;;;;;;;;4990971;28;20969;-73
2023/12/12 11:21:42;;;;;;;10.15;3.72;;;;;;;;;;4985704;28;20042;-73
2023/12/12 11:24:08;;;;;;;10.65;3.90;;;;;;;;;;4982674;28;20277;-73
2023/12/12 11:26:35;;;;;;;9.75;3.25;;;;;;;;;;4983265;28;20721;-73
2023/12/12 11:29:01;;;;;;;9.38;2.22;;;;;;;;;;4981322;28;20030;-73
2023/12/12 11:31:28;;;;;;;9.70;2.28;;;;;;;;;;4984457;28;20807;-73
2023/12/12 11:34:13;;;;;;;10.30;2.50;;;;;;;;;;4988674;28;20033;-74
2023/12/12 11:36:49;;;;;;;9.35;2.45;;;;;;;;;;4985905;28;20576;-74
2023/12/12 11:39:18;;;;;;;9.05;2.47;;;;;;;;;;4982747;28;20060;-74
2023/12/12 11:41:45;;;;;;;8.10;2.90;;;;;;;;;;4980542;28;20290;-74
2023/12/12 11:44:12;;;;;;;9.45;3.15;;;;;;;;;;4977932;28;20025;-74
2023/12/12 11:46:38;;;;;;;8.60;2.58;;;;;;;;;;4985009;28;20022;-72
2023/12/12 11:49:23;;;;;;;11.15;4.65;;;;;;;;;;4979492;28;20847;-74
2023/12/12 11:51:50;;;;;;;14.70;4.82;;;;;;;;;;4984527;28;20030;-74
2023/12/12 11:54:24;;;;;;;9.27;3.15;;;;;;;;;;4983206;28;20057;-74
2023/12/12 11:57:00;;;;;;;8.05;2.60;;;;;;;;;;4984969;28;20052;-73
2023/12/12 11:59:27;;;;;;;9.65;3.40;;;;;;;;;;4985977;28;20038;-73
2023/12/12 12:01:53;;;;;;;9.80;3.80;;;;;;;;;;4987445;28;20030;-73
2023/12/12 12:04:21;;;;;;;8.80;3.08;;;;;;;;;;4983776;28;22562;-73
2023/12/12 12:06:47;;;;;;;8.55;2.90;;;;;;;;;;4981693;28;20178;-73
2023/12/12 12:09:15;;;;;;;9.77;2.80;;;;;;;;;;4981849;28;20044;-74
2023/12/12 12:11:44;;;;;;;9.93;2.63;;;;;;;;;;4981597;28;20371;-73
2023/12/12 12:14:11;;;;;;;10.73;2.95;;;;;;;;;;4981579;28;20038;-73
2023/12/12 12:16:38;;;;;;;14.70;7.55;;;;;;;;;;4988021;28;20025;-70
2023/12/12 12:19:23;;;;;;;11.55;4.15;;;;;;;;;;4979367;28;20041;-71
2023/12/12 12:21:49;;;;;;;14.05;3.20;;;;;;;;;;4986509;28;20123;-73
2023/12/12 12:24:15;;;;;;;11.35;3.70;;;;;;;;;;4982257;28;20038;-73
2023/12/12 12:26:41;;;;;;;10.98;3.75;;;;;;;;;;4983312;28;20057;-72
2023/12/12 12:29:11;;;;;;;12.50;4.45;;;;;;;;;;4984006;28;20077;-73
2023/12/12 12:31:40;;;;;;;10.18;3.47;;;;;;;;;;4984464;28;20061;-73
2023/12/12 12:34:18;;;;;;;10.38;3.45;;;;;;;;;;4980086;28;20036;-74
2023/12/12 12:36:48;;;;;;;9.60;2.97;;;;;;;;;;4983453;28;21437;-74
2023/12/12 12:39:15;;;;;;;10.80;3.72;;;;;;;;;;4982555;28;20032;-72
2023/12/12 12:41:43;;;;;;;10.00;2.83;;;;;;;;;;4989654;28;20034;-72
2023/12/12 12:44:10;;;;;;;9.38;2.60;;;;;;;;;;4988420;28;20496;-73
2023/12/12 12:46:37;;;;;;;9.77;2.40;;;;;;;;;;4986063;28;20148;-73
2023/12/12 12:49:03;;;;;;;7.88;1.98;;;;;;;;;;4984616;28;20108;-73
2023/12/12 12:51:30;;;;;;;7.90;2.00;;;;;;;;;;4988035;28;20030;-73
2023/12/12 12:53:56;;;;;;;9.13;2.22;;;;;;;;;;4986394;28;20033;-73
2023/12/12 12:56:22;;;;;;;8.93;2.30;;;;;;;;;;4976583;28;20058;-73
2023/12/12 12:58:48;;;;;;;9.68;2.45;;;;;;;;;;4983519;28;20029;-73
2023/12/12 13:01:15;;;;;;;9.98;2.40;;;;;;;;;;4982689;28;20038;-72
2023/12/12 13:03:41;;;;;;;8.35;2.42;;;;;;;;;;4985165;28;20037;-74
2023/12/12 13:06:07;;;;;;;9.55;2.60;;;;;;;;;;4975649;28;20496;-75
2023/12/12 13:08:33;;;;;;;8.20;2.20;;;;;;;;;;4986534;28;20038;-74
2023/12/12 13:10:59;;;;;;;8.88;2.63;;;;;;;;;;4983804;28;20033;-75
2023/12/12 13:13:26;;;;;;;9.52;2.40;;;;;;;;;;4985082;28;20022;-73
2023/12/12 13:15:52;;;;;;;10.18;2.70;;;;;;;;;;4979601;28;20038;-73
2023/12/12 13:18:18;;;;;;;9.90;2.30;;;;;;;;;;4982426;28;20042;-75
2023/12/12 13:20:46;;;;;;;8.45;2.40;;;;;;;;;;4984820;28;20034;-73
2023/12/12 13:23:12;;;;;;;8.90;2.50;;;;;;;;;;4978213;28;20064;-73
2023/12/12 13:25:38;;;;;;;6.95;1.42;;;;;;;;;;4980114;28;20038;-75
2023/12/12 13:28:04;;;;;;;9.20;2.50;;;;;;;;;;4978762;28;20865;-75
2023/12/12 13:30:30;;;;;;;10.23;3.42;;;;;;;;;;4977352;28;20028;-74
2023/12/12 13:32:56;;;;;;;9.38;3.22;;;;;;;;;;4982346;28;20129;-74
2023/12/12 13:35:23;;;;;;;10.45;3.75;;;;;;;;;;4976127;28;20033;-73
2023/12/12 13:37:49;;;;;;;11.05;3.00;;;;;;;;;;4982333;28;20953;-74
2023/12/12 13:40:15;;;;;;;10.55;2.88;;;;;;;;;;4977003;28;20661;-73
2023/12/12 13:42:42;;;;;;;9.98;2.58;;;;;;;;;;4982924;28;20112;-74
2023/12/12 13:45:08;;;;;;;11.43;2.72;;;;;;;;;;4981758;28;20076;-74
2023/12/12 13:47:34;;;;;;;10.23;2.28;;;;;;;;;;4977265;28;20749;-75
2023/12/12 13:50:01;;;;;;;8.07;2.10;;;;;;;;;;4978742;28;20084;-72
2023/12/12 13:52:30;;;;;;;9.57;2.08;;;;;;;;;;4983723;28;20030;-72
2023/12/12 13:54:56;;;;;;;8.32;2.13;;;;;;;;;;4980438;28;20488;-72
2023/12/12 13:57:23;;;;;;;11.15;2.30;;;;;;;;;;4979005;28;20203;-73
2023/12/12 13:59:50;;;;;;;10.48;2.80;;;;;;;;;;4979799;28;20038;-73
2023/12/12 14:02:16;;;;;;;8.43;2.60;;;;;;;;;;4976753;28;20022;-73
2023/12/12 14:04:43;;;;;;;10.32;3.30;;;;;;;;;;4979280;28;20674;-72
2023/12/12 14:07:09;;;;;;;8.70;2.28;;;;;;;;;;4975935;28;20644;-75
2023/12/12 14:09:35;;;;;;;9.60;2.30;;;;;;;;;;4981888;28;20036;-73
2023/12/12 14:12:02;;;;;;;8.23;2.38;;;;;;;;;;4976942;28;20088;-74
2023/12/12 14:14:29;;;;;;;9.43;2.83;;;;;;;;;;4984359;28;20156;-73
2023/12/12 14:16:55;;;;;;;9.13;2.42;;;;;;;;;;4981197;28;20113;-73
2023/12/12 14:19:21;;;;;;;9.70;2.55;;;;;;;;;;4980998;28;20061;-73
2023/12/12 14:21:49;;;;;;;11.27;2.70;;;;;;;;;;4977286;28;20041;-72
2023/12/12 14:24:15;;;;;;;9.05;2.50;;;;;;;;;;4977991;28;20038;-74
2023/12/12 14:26:42;;;;;;;11.68;3.05;;;;;;;;;;4977177;28;20098;-73
2023/12/12 14:29:09;;;;;;;14.18;3.00;;;;;;;;;;4988689;28;20041;-73
2023/12/12 14:31:35;;;;;;;9.70;2.63;;;;;;;;;;4993743;28;20033;-74
2023/12/12 14:34:02;;;;;;;8.82;2.67;;;;;;;;;;4996947;28;20105;-73
2023/12/12 14:36:28;;;;;;;9.85;2.70;;;;;;;;;;4996515;28;20863;-73
2023/12/12 14:38:55;;;;;;;10.43;2.80;;;;;;;;;;4996946;28;20077;-73
2023/12/12 14:41:21;;;;;;;10.13;3.10;;;;;;;;;;4991565;28;20033;-73